Tonasket, WA (98855)

11:57 AM PST on February 08, 2016 (GMT -0800)
Sinlahekin Wildlife Area | | Change Station
CLOSE
Current Station
Personal Weather Station
Location: Loomis, WA
Elevation: 1539 ft
Nearby Weather Stations

Elev 1539 ft 48.75 °N, 119.65 °W | Updated 1 minute ago

Partly Cloudy
Partly Cloudy
36.7 °F
Feels Like 37 °F
N
0.0
Wind Variable Wind from ENE
Gusts 1.0 mph

Today
High -- | Low -- °F
--% Chance of Precip.
Yesterday
High -- | Low -- °F
Precip. -- in
Pressure 30.65 in
Visibility 10.0 miles
Clouds Clear
Windchill 37 °F
Dew Point 32 °F
Humidity 83%
Rainfall 0.00 in
Snow Depth Not available.
7:17 AM 5:06 PM
New Moon, 0% visible
METAR KEPH 081953Z AUTO 02008KT 10SM CLR 08/00 A3062 RMK AO2 SLP377 T00830000
Pressure 30.65 in
Visibility 10.0 miles
Clouds Clear
Windchill 37 °F
Dew Point 32 °F
Humidity 83%
Rainfall 0.00 in
Snow Depth Not available.
7:17 AM 5:06 PM
New Moon, 0% visible
METAR KEPH 081953Z AUTO 02008KT 10SM CLR 08/00 A3062 RMK AO2 SLP377 T00830000

10-Day Weather Forecast

Almanac

Astronomy

Feb. 08, 2016 Rise Set
Actual Time
Civil Twilight
Nautical Twilight
Astronomical Twilight
Moon
Length of Visible Light
Length of Day
Tomorrow will be .
, % of the Moon is Illuminated

Today's Extremes

State Highs State Lows

Community

WunderPhotos

Upload Photos

1,891,499 photos uploaded!

WunderBlog® & News

Nearby

Air Quality

  Air Quality AQ Index Pollutant
Not available.

Snow Depth

Station Depth Elevation

Earthquake Activity

City Distance Mag. Time & Date
Minimum magnitude displayed is 2.5.

Coastal Water Temperatures

Place Temperature

Stations

Nearby Weather Stations

Station Location Temp. Windchill Dew Point Humidity Wind Precip. Elev Updated Type
                   

Watches & Warnings

There are currently no watches in effect.